Terminal Aerodrome Forecast
Issued by NWS

Home | Current Version | Previous Version | Text Only | Print | Product List | Glossary On
Versions: 1 2 3 4 5 6 7 8 9 10 11 12 13 14 15 16 17 18 19 20 21 22 23 24 25 26 27 28 29 30 31 32 33 34
000
FTUS44 KFWD 021742
TAFAFW
TAF
KAFW 021742Z 0218/0318 01010KT 2SM BR OVC005
     FM030500 12005KT 2SM BR OVC005
     FM031100 16006KT 2SM -DZ BR OVC006 WS015/21050KT
     FM031500 18011KT 5SM BR OVC008=

USA.gov is the U.S. government's official web portal to all federal, state and local government web resources and services.